Time;durP1;ratioP1;P1;durP2;ratioP2;P2;SDS_P1;SDS_P2;PMS_P1;PMS_P2;Temp;Humidity;BMP_temperature;BMP_pressure;BME280_temperature;BME280_humidity;BME280_pressure;Samples;Min_cycle;Max_cycle;Signal;HPM_P1;HPM_P2
2022/06/18 00:00:23;;;;;;;4.50;3.30;;;;;;;16.80;89.34;97002.28;5050438;28;20477;-73
2022/06/18 00:02:51;;;;;;;3.97;3.60;;;;;;;16.27;92.72;96994.63;5023757;28;20453;-73
2022/06/18 00:05:20;;;;;;;7.83;3.00;;;;;;;16.33;93.60;96994.38;5030594;28;20446;-73
2022/06/18 00:07:51;;;;;;;3.97;3.57;;;;;;;16.69;89.68;97007.41;5031821;28;20510;-74
2022/06/18 00:10:21;;;;;;;3.87;3.37;;;;;;;16.82;87.75;97016.84;5019272;28;20453;-73
2022/06/18 00:15:37;;;;;;;5.40;3.20;;;;;;;16.46;91.52;96985.13;5041978;28;20434;-73
2022/06/18 00:18:10;;;;;;;4.87;3.70;;;;;;;16.19;95.65;97010.81;5031776;28;20469;-74
2022/06/18 00:20:37;;;;;;;3.80;3.40;;;;;;;16.13;95.71;97002.28;5031513;28;20447;-74
2022/06/18 00:23:13;;;;;;;4.10;3.30;;;;;;;16.23;97.45;97009.00;5043111;28;20446;-74
2022/06/18 00:25:43;;;;;;;4.13;3.73;;;;;;;15.90;98.11;96991.47;5030273;28;20461;-75
2022/06/18 00:28:19;;;;;;;4.83;3.10;;;;;;;15.53;100.00;97008.78;5013942;28;20466;-74
2022/06/18 00:30:47;;;;;;;3.33;3.07;;;;;;;15.53;100.00;96982.88;5026444;28;20992;-73
2022/06/18 00:33:14;;;;;;;5.63;3.73;;;;;;;15.34;100.00;96990.75;5030019;28;20438;-74
2022/06/18 00:35:43;;;;;;;2.90;2.40;;;;;;;15.89;100.00;97005.13;5029876;28;20484;-74
2022/06/18 00:38:29;;;;;;;6.03;3.07;;;;;;;16.06;100.00;97004.81;5013311;28;21126;-74
2022/06/18 00:40:57;;;;;;;5.30;3.20;;;;;;;15.95;100.00;97004.53;5030747;28;20465;-74
2022/06/18 00:43:35;;;;;;;3.37;3.07;;;;;;;15.83;100.00;96995.84;5049758;28;20851;-74
2022/06/18 00:46:22;;;;;;;3.90;3.23;;;;;;;15.92;100.00;96989.22;5049955;28;20429;-74
2022/06/18 00:49:14;;;;;;;8.80;3.97;;;;;;;15.93;100.00;97004.13;5049871;28;20430;-74
2022/06/18 00:51:46;;;;;;;3.27;2.90;;;;;;;15.81;100.00;97001.53;5049586;28;21016;-74
2022/06/18 00:54:39;;;;;;;5.40;3.97;;;;;;;15.74;100.00;96988.00;5033157;28;20437;-74
2022/06/18 00:57:28;;;;;;;2.90;2.70;;;;;;;15.92;100.00;96993.78;5033030;28;20457;-74
2022/06/18 01:00:05;;;;;;;4.00;3.33;;;;;;;15.90;100.00;96978.13;5050853;28;20445;-73
2022/06/18 01:02:40;;;;;;;7.03;2.80;;;;;;;15.96;100.00;96987.41;5017643;28;20418;-74
2022/06/18 01:05:15;;;;;;;6.60;3.67;;;;;;;15.97;100.00;96993.53;5045188;28;21017;-74
2022/06/18 01:07:43;;;;;;;6.63;3.00;;;;;;;15.99;100.00;96995.84;5049477;28;20461;-74
2022/06/18 01:10:18;;;;;;;4.90;3.20;;;;;;;15.64;100.00;96999.97;5049386;28;20457;-74
2022/06/18 01:12:45;;;;;;;4.73;3.60;;;;;;;15.60;100.00;96991.09;5037669;28;20446;-74
2022/06/18 01:15:13;;;;;;;3.17;2.80;;;;;;;15.30;100.00;96965.91;5029417;28;20446;-74
2022/06/18 01:17:47;;;;;;;8.13;3.03;;;;;;;15.29;100.00;96969.69;5026176;28;20965;-74
2022/06/18 01:20:14;;;;;;;4.73;2.80;;;;;;;15.16;100.00;96958.31;5049019;28;20484;-74
2022/06/18 01:22:44;;;;;;;3.77;3.40;;;;;;;15.55;100.00;96982.53;5048282;28;20438;-74
2022/06/18 01:25:11;;;;;;;3.60;3.23;;;;;;;15.28;100.00;96965.47;5029123;28;20449;-74
2022/06/18 01:27:41;;;;;;;3.47;3.17;;;;;;;15.43;100.00;96962.06;5029222;28;20782;-74
2022/06/18 01:30:21;;;;;;;2.93;2.73;;;;;;;14.84;100.00;96922.06;5015668;28;20552;-74
2022/06/18 01:32:52;;;;;;;3.00;2.80;;;;;;;15.08;100.00;96962.66;5033210;28;20882;-74
2022/06/18 01:35:22;;;;;;;3.20;3.00;;;;;;;14.73;100.00;96967.78;5029506;28;20438;-73
2022/06/18 01:38:13;;;;;;;3.20;3.00;;;;;;;14.54;100.00;96954.28;5024860;28;20589;-75
2022/06/18 01:44:11;;;;;;;3.10;2.90;;;;;;;14.67;100.00;96953.13;5029347;28;20435;-73
2022/06/18 01:46:42;;;;;;;4.53;3.40;;;;;;;14.78;100.00;96938.25;5029396;28;20445;-74
2022/06/18 01:49:15;;;;;;;6.83;3.83;;;;;;;14.60;100.00;96936.97;5028975;28;20462;-74
2022/06/18 01:51:47;;;;;;;3.53;3.10;;;;;;;14.76;100.00;96924.50;5045628;28;20460;-74
2022/06/18 01:54:26;;;;;;;2.87;2.57;;;;;;;14.75;100.00;96920.28;5021285;28;20806;-73
2022/06/18 01:57:04;;;;;;;6.70;5.30;;;;;;;14.20;100.00;96918.28;5049474;28;20465;-74
2022/06/18 01:59:39;;;;;;;3.70;3.37;;;;;;;14.32;100.00;96930.81;5052799;28;20487;-74
2022/06/18 02:02:07;;;;;;;3.00;2.70;;;;;;;14.31;100.00;96918.63;5052808;28;20449;-74
2022/06/18 02:04:34;;;;;;;3.70;3.33;;;;;;;14.47;100.00;96914.94;5052876;28;20837;-74
2022/06/18 02:07:05;;;;;;;4.27;3.40;;;;;;;14.70;100.00;96930.41;5052706;28;20475;-74
2022/06/18 02:09:44;;;;;;;4.13;3.50;;;;;;;14.71;100.00;96924.75;5036146;28;20527;-74
2022/06/18 02:12:21;;;;;;;3.83;3.43;;;;;;;14.22;100.00;96925.94;5024136;28;20898;-74
2022/06/18 02:14:54;;;;;;;3.60;3.30;;;;;;;14.16;100.00;96915.53;5029678;28;20443;-74
2022/06/18 02:17:21;;;;;;;5.90;3.47;;;;;;;14.44;100.00;96933.47;5043647;28;20461;-74
2022/06/18 02:19:53;;;;;;;5.17;3.97;;;;;;;14.44;100.00;96933.47;5035532;28;20524;-74
2022/06/18 02:22:29;;;;;;;3.70;3.07;;;;;;;14.44;100.00;96931.59;5032509;28;20949;-74
2022/06/18 02:24:56;;;;;;;3.47;3.27;;;;;;;14.33;100.00;96913.72;5032408;28;20464;-74
2022/06/18 02:27:23;;;;;;;4.67;4.37;;;;;;;14.24;100.00;96915.72;5035104;28;20934;-74
2022/06/18 02:29:50;;;;;;;6.43;5.10;;;;;;;14.41;100.00;96934.88;5031592;28;20455;-73
2022/06/18 02:32:34;;;;;;;5.33;4.13;;;;;;;14.26;100.00;96921.47;5017910;28;20489;-74
2022/06/18 02:35:07;;;;;;;4.17;3.77;;;;;;;14.48;100.00;96945.75;5034198;28;20465;-74
2022/06/18 02:37:38;;;;;;;8.10;3.77;;;;;;;14.23;100.00;96924.81;5017616;28;20544;-74
2022/06/18 02:40:16;;;;;;;3.37;3.17;;;;;;;14.22;100.00;96936.56;5034102;28;20446;-76
2022/06/18 02:42:42;;;;;;;3.00;2.80;;;;;;;14.20;100.00;96929.69;5033610;28;20454;-74
2022/06/18 02:45:10;;;;;;;4.53;3.47;;;;;;;13.98;100.00;96916.84;5017093;28;20438;-73
2022/06/18 02:47:37;;;;;;;3.70;3.40;;;;;;;13.70;100.00;96908.78;5033980;28;20430;-74
2022/06/18 02:50:09;;;;;;;3.73;3.40;;;;;;;13.89;100.00;96924.97;5035132;28;20454;-73
2022/06/18 02:52:40;;;;;;;4.90;3.47;;;;;;;13.47;100.00;96928.88;5017439;28;20480;-73
2022/06/18 02:55:12;;;;;;;3.70;3.40;;;;;;;13.80;100.00;96937.56;5033528;28;20445;-73
2022/06/18 02:57:39;;;;;;;5.27;4.10;;;;;;;13.87;100.00;96934.34;5033468;28;20493;-75
2022/06/18 03:00:08;;;;;;;3.97;3.67;;;;;;;13.89;100.00;96898.38;5033555;28;20541;-73
2022/06/18 03:02:35;;;;;;;3.87;3.57;;;;;;;13.76;100.00;96919.97;5033456;28;20435;-73
2022/06/18 03:05:04;;;;;;;4.50;4.10;;;;;;;13.62;100.00;96896.34;5033301;28;20454;-74
2022/06/18 03:07:31;;;;;;;6.50;5.37;;;;;;;13.94;100.00;96936.47;5033564;28;20438;-77
2022/06/18 03:12:43;;;;;;;3.90;3.63;;;;;;;14.00;100.00;96906.66;5034569;28;20958;-74
2022/06/18 03:15:09;;;;;;;4.27;3.83;;;;;;;13.91;100.00;96890.06;5016615;28;20493;-73
2022/06/18 03:17:36;;;;;;;4.93;4.20;;;;;;;13.75;100.00;96910.44;5032437;28;20471;-73
2022/06/18 03:20:09;;;;;;;5.27;4.00;;;;;;;13.44;100.00;96903.75;5032224;28;20500;-73
2022/06/18 03:22:36;;;;;;;4.90;4.20;;;;;;;13.49;100.00;96914.19;5032032;28;20458;-74
2022/06/18 03:25:04;;;;;;;4.40;4.00;;;;;;;13.24;100.00;96896.66;5032588;28;20810;-74
2022/06/18 03:27:31;;;;;;;4.77;3.90;;;;;;;13.18;100.00;96912.00;5032289;28;20442;-74
2022/06/18 03:30:04;;;;;;;3.87;3.43;;;;;;;13.34;100.00;96895.44;5021621;28;20493;-73
2022/06/18 03:32:32;;;;;;;4.07;3.77;;;;;;;13.42;100.00;96913.16;5052273;28;20437;-73
2022/06/18 03:34:58;;;;;;;4.67;4.07;;;;;;;13.48;100.00;96928.56;5052004;28;20986;-73
2022/06/18 03:37:25;;;;;;;8.50;4.17;;;;;;;13.41;100.00;96903.66;5052256;28;20457;-73
2022/06/18 03:39:52;;;;;;;6.33;3.80;;;;;;;13.34;100.00;96896.22;5051956;28;20456;-74
2022/06/18 03:42:20;;;;;;;5.37;4.87;;;;;;;13.49;100.00;96926.69;5051475;28;20433;-74
2022/06/18 03:44:46;;;;;;;6.33;3.77;;;;;;;13.26;100.00;96905.06;5027258;28;20455;-74
2022/06/18 03:47:13;;;;;;;4.17;3.27;;;;;;;13.24;100.00;96897.44;5051860;28;20433;-73
2022/06/18 03:49:41;;;;;;;4.00;3.70;;;;;;;13.53;100.00;96909.00;5053868;28;20448;-74
2022/06/18 03:52:09;;;;;;;7.63;3.97;;;;;;;13.72;100.00;96930.47;5051999;28;20444;-73
2022/06/18 03:54:36;;;;;;;3.80;3.50;;;;;;;13.82;100.00;96927.38;5052218;28;20469;-74
2022/06/18 03:57:06;;;;;;;4.00;3.70;;;;;;;13.79;100.00;96912.09;5051931;28;20941;-73
2022/06/18 03:59:34;;;;;;;4.67;3.83;;;;;;;13.62;100.00;96909.63;5051821;28;20507;-74
2022/06/18 04:02:03;;;;;;;3.77;3.47;;;;;;;13.68;100.00;96926.94;5051882;28;20448;-73
2022/06/18 04:04:35;;;;;;;4.53;4.23;;;;;;;13.72;100.00;96911.09;5035491;28;20437;-74
2022/06/18 04:07:02;;;;;;;4.10;3.77;;;;;;;13.47;100.00;96905.75;5051369;28;20444;-73
2022/06/18 04:09:54;;;;;;;4.50;4.17;;;;;;;13.77;100.00;96908.25;5051144;28;20595;-74
2022/06/18 04:12:25;;;;;;;3.73;3.43;;;;;;;13.55;100.00;96898.81;5050807;28;20457;-75
2022/06/18 04:15:11;;;;;;;4.80;3.90;;;;;;;13.85;100.00;96928.59;5051279;28;20960;-73
2022/06/18 04:17:47;;;;;;;3.80;3.50;;;;;;;13.52;100.00;96913.53;5050619;28;20465;-73
2022/06/18 04:20:32;;;;;;;4.83;4.03;;;;;;;13.58;100.00;96919.38;5050978;28;20453;-73
2022/06/18 04:23:01;;;;;;;5.87;4.13;;;;;;;13.50;100.00;96922.94;5047454;28;20448;-73
2022/06/18 04:25:32;;;;;;;4.57;4.23;;;;;;;13.46;100.00;96904.22;5031105;28;20453;-74
2022/06/18 04:27:59;;;;;;;6.60;4.00;;;;;;;13.86;100.00;96906.22;5030940;28;20508;-73
2022/06/18 04:30:29;;;;;;;7.97;4.40;;;;;;;14.13;100.00;96924.16;5039135;28;20484;-73
2022/06/18 04:32:59;;;;;;;3.90;3.70;;;;;;;14.24;100.00;96900.53;5051062;28;20441;-73
2022/06/18 04:35:29;;;;;;;4.13;3.83;;;;;;;14.06;100.00;96878.75;5051286;28;20453;-73
2022/06/18 04:38:02;;;;;;;4.30;4.00;;;;;;;14.30;100.00;96909.84;5051007;28;20584;-74
2022/06/18 04:40:55;;;;;;;4.40;4.10;;;;;;;14.19;100.00;96888.25;5049986;28;20496;-73
2022/06/18 04:43:35;;;;;;;4.13;3.83;;;;;;;14.52;100.00;96897.19;5050048;28;20448;-73
2022/06/18 04:46:02;;;;;;;4.00;3.63;;;;;;;14.76;100.00;96903.22;5049990;28;20510;-73
2022/06/18 04:48:29;;;;;;;5.30;4.90;;;;;;;14.87;100.00;96902.72;5050149;28;20484;-73
2022/06/18 04:50:57;;;;;;;7.23;4.37;;;;;;;15.03;100.00;96888.34;5033381;28;20472;-73
2022/06/18 04:53:23;;;;;;;6.57;4.03;;;;;;;15.33;100.00;96910.03;5049808;28;20452;-73
2022/06/18 04:55:55;;;;;;;12.87;3.97;;;;;;;15.18;100.00;96894.81;5050080;28;20543;-73
2022/06/18 04:58:22;;;;;;;11.00;4.30;;;;;;;15.47;100.00;96903.50;5049672;28;20473;-73
2022/06/18 05:00:55;;;;;;;3.80;3.50;;;;;;;15.91;100.00;96928.22;5034226;28;20465;-73
2022/06/18 05:03:37;;;;;;;4.07;3.77;;;;;;;15.90;100.00;96900.78;5035249;28;20828;-73
2022/06/18 05:06:33;;;;;;;4.57;4.27;;;;;;;16.18;100.00;96911.31;5045832;28;20441;-73
2022/06/18 05:09:12;;;;;;;5.10;4.70;;;;;;;16.54;100.00;96933.41;5051761;28;20498;-73
2022/06/18 05:11:57;;;;;;;5.47;5.07;;;;;;;16.57;100.00;96910.63;5051641;28;20503;-73
2022/06/18 05:14:45;;;;;;;4.43;4.07;;;;;;;16.77;100.00;96928.22;5050350;28;20444;-73
2022/06/18 05:17:31;;;;;;;4.23;3.93;;;;;;;16.77;100.00;96915.63;5034256;28;20443;-73
2022/06/18 05:20:04;;;;;;;4.00;3.80;;;;;;;16.39;100.00;96892.31;5049843;28;20468;-73
2022/06/18 05:22:35;;;;;;;4.13;3.83;;;;;;;16.57;100.00;96900.72;5050014;28;20449;-73
2022/06/18 05:25:05;;;;;;;4.33;3.93;;;;;;;16.72;100.00;96905.25;5031028;28;20819;-73
2022/06/18 05:27:34;;;;;;;4.53;4.20;;;;;;;17.08;100.00;96925.38;5033917;28;20435;-73
2022/06/18 05:30:25;;;;;;;4.90;3.73;;;;;;;17.41;98.21;96940.88;5030663;28;20533;-73
2022/06/18 05:32:54;;;;;;;4.20;3.77;;;;;;;17.41;96.38;96918.72;5018458;28;20446;-73
2022/06/18 05:35:22;;;;;;;7.23;3.70;;;;;;;17.82;95.02;96956.50;5018183;28;20528;-73
2022/06/18 05:37:50;;;;;;;3.87;3.67;;;;;;;17.88;93.78;96913.03;5034175;28;20466;-73
2022/06/18 05:40:18;;;;;;;6.90;4.17;;;;;;;18.07;92.98;96935.47;5034350;28;20453;-73
2022/06/18 05:42:46;;;;;;;4.10;3.80;;;;;;;18.00;90.57;96928.09;5033956;28;20503;-73
2022/06/18 05:45:12;;;;;;;4.80;4.40;;;;;;;18.19;90.77;96935.28;5017600;28;20449;-73
2022/06/18 05:47:39;;;;;;;5.03;4.13;;;;;;;18.23;91.22;96938.78;5034396;28;20430;-73
2022/06/18 05:50:10;;;;;;;4.30;3.97;;;;;;;18.40;88.85;96942.84;5017446;28;20487;-73
2022/06/18 05:52:38;;;;;;;4.00;3.80;;;;;;;18.47;86.27;96916.16;5017493;28;20934;-73
2022/06/18 05:55:33;;;;;;;4.00;3.67;;;;;;;18.58;86.17;96912.50;5021028;28;20478;-73
2022/06/18 05:58:10;;;;;;;4.10;3.70;;;;;;;18.89;85.08;96934.69;5015585;28;20587;-74
2022/06/18 06:00:43;;;;;;;5.40;3.73;;;;;;;19.21;84.71;96913.59;5025607;28;20472;-73
2022/06/18 06:03:10;;;;;;;4.97;4.00;;;;;;;19.26;82.90;96909.84;5054183;28;20433;-73
2022/06/18 06:05:37;;;;;;;4.63;3.90;;;;;;;19.12;82.59;96918.50;5037440;28;20443;-73
2022/06/18 06:08:05;;;;;;;3.50;3.30;;;;;;;19.64;81.47;96896.03;5055575;28;20421;-73
2022/06/18 06:13:24;;;;;;;4.30;3.90;;;;;;;20.34;77.48;96931.81;5053672;28;20463;-73
2022/06/18 06:15:52;;;;;;;11.37;4.00;;;;;;;20.26;75.47;96930.97;5038920;28;20487;-74
2022/06/18 06:18:25;;;;;;;8.90;3.80;;;;;;;20.33;75.22;96919.53;5055479;28;20464;-74
2022/06/18 06:20:54;;;;;;;4.20;3.10;;;;;;;20.42;74.01;96922.66;5053320;28;20481;-74
2022/06/18 06:23:21;;;;;;;4.93;4.07;;;;;;;20.54;74.46;96932.31;5047486;28;20525;-73
2022/06/18 06:25:49;;;;;;;3.60;3.40;;;;;;;20.61;73.76;96933.13;5034870;28;20480;-73
2022/06/18 06:28:19;;;;;;;4.33;4.00;;;;;;;20.74;73.63;96932.81;5017264;28;20473;-73
2022/06/18 06:30:47;;;;;;;3.33;3.13;;;;;;;20.85;72.29;96939.00;5030237;28;20450;-73
2022/06/18 06:33:14;;;;;;;4.37;3.83;;;;;;;20.76;73.26;96947.41;5033467;28;20484;-73
2022/06/18 06:35:43;;;;;;;4.40;4.10;;;;;;;21.10;70.82;96937.19;5032921;28;21016;-74
2022/06/18 06:38:10;;;;;;;4.00;3.60;;;;;;;21.40;70.63;96930.75;5032529;28;20549;-74
2022/06/18 06:40:37;;;;;;;3.70;3.50;;;;;;;21.70;70.73;96933.09;5033061;28;20489;-73
2022/06/18 06:43:04;;;;;;;4.03;3.63;;;;;;;21.95;69.87;96920.38;5033585;28;20484;-74
2022/06/18 06:45:33;;;;;;;3.90;3.70;;;;;;;22.15;68.63;96912.69;5033718;28;20431;-74
2022/06/18 06:48:00;;;;;;;4.63;4.23;;;;;;;22.27;67.40;96912.28;5034680;28;20505;-74
2022/06/18 06:50:29;;;;;;;4.30;3.73;;;;;;;22.51;67.70;96926.88;5033815;28;20530;-74
2022/06/18 06:52:56;;;;;;;4.57;4.27;;;;;;;22.45;66.39;96927.66;5032689;28;20450;-74
2022/06/18 06:58:16;;;;;;;4.67;4.37;;;;;;;22.51;66.34;96931.50;5052012;28;20465;-73
2022/06/18 07:00:51;;;;;;;4.23;3.53;;;;;;;22.63;66.35;96898.72;5052437;28;20883;-73
2022/06/18 07:03:25;;;;;;;4.03;3.53;;;;;;;22.80;64.74;96914.06;5052396;28;20429;-74
2022/06/18 07:05:57;;;;;;;6.60;4.03;;;;;;;23.00;64.36;96912.47;5051982;28;20437;-74
2022/06/18 07:08:24;;;;;;;3.53;3.23;;;;;;;23.20;61.49;96901.94;5053477;28;20479;-75
2022/06/18 07:10:51;;;;;;;3.77;3.50;;;;;;;23.11;62.42;96898.94;5020627;28;20463;-75
2022/06/18 07:13:19;;;;;;;7.63;3.77;;;;;;;23.54;61.65;96918.31;5051404;28;20450;-75
2022/06/18 07:15:47;;;;;;;4.93;3.50;;;;;;;23.80;61.60;96905.41;5035542;28;20541;-74
2022/06/18 07:18:17;;;;;;;4.97;3.30;;;;;;;24.00;59.96;96919.13;5035576;28;20544;-75
2022/06/18 07:20:44;;;;;;;3.57;3.37;;;;;;;23.94;58.36;96916.09;5035402;28;20885;-75
2022/06/18 07:23:11;;;;;;;4.57;3.30;;;;;;;24.42;57.20;96915.28;5046434;28;20439;-75
2022/06/18 07:25:40;;;;;;;3.07;2.87;;;;;;;24.76;57.86;96916.06;5032800;28;20504;-75
2022/06/18 07:28:07;;;;;;;5.00;3.53;;;;;;;24.83;56.26;96906.31;5050462;28;20476;-75
2022/06/18 07:30:34;;;;;;;3.93;3.33;;;;;;;24.44;55.63;96889.38;5035154;28;20985;-75
2022/06/18 07:33:01;;;;;;;3.37;3.03;;;;;;;24.98;55.24;96884.09;5031543;28;20504;-75
2022/06/18 07:35:31;;;;;;;3.17;2.87;;;;;;;25.50;53.96;96908.13;5031514;28;21012;-75
2022/06/18 07:37:58;;;;;;;2.97;2.50;;;;;;;25.17;52.61;96876.50;5032674;28;20434;-75
2022/06/18 07:40:31;;;;;;;2.87;2.67;;;;;;;25.04;52.58;96879.78;5032114;28;20489;-75
2022/06/18 07:42:58;;;;;;;2.40;2.30;;;;;;;25.37;52.15;96896.31;5030839;28;20430;-75
2022/06/18 07:45:25;;;;;;;2.67;2.47;;;;;;;25.68;50.83;96880.00;5030993;28;20434;-75
2022/06/18 07:47:52;;;;;;;3.63;2.67;;;;;;;25.89;50.73;96877.72;5031827;28;20434;-75
2022/06/18 07:50:21;;;;;;;3.00;2.70;;;;;;;25.87;49.81;96865.75;5030769;28;20481;-76
2022/06/18 07:52:47;;;;;;;2.97;2.77;;;;;;;25.99;49.15;96864.41;5030723;28;20910;-76
2022/06/18 07:55:21;;;;;;;5.30;2.50;;;;;;;26.16;47.73;96898.56;5016417;28;20492;-75
2022/06/18 07:57:49;;;;;;;2.87;2.60;;;;;;;26.16;47.52;96887.72;5033839;28;20477;-75
2022/06/18 08:00:19;;;;;;;2.77;2.57;;;;;;;25.96;47.72;96865.25;5033787;28;20505;-75
2022/06/18 08:02:46;;;;;;;2.50;2.30;;;;;;;25.97;46.96;96866.78;5030621;28;20492;-75
2022/06/18 08:05:20;;;;;;;2.30;2.10;;;;;;;25.92;47.08;96873.44;5031962;28;20826;-75
2022/06/18 08:07:46;;;;;;;2.33;2.13;;;;;;;25.97;46.79;96864.06;5014082;28;20811;-75
2022/06/18 08:10:36;;;;;;;10.30;2.30;;;;;;;26.41;47.31;96869.06;5016600;28;20469;-75
2022/06/18 08:13:04;;;;;;;5.37;2.20;;;;;;;26.05;45.87;96876.31;5029843;28;20834;-74
2022/06/18 08:15:37;;;;;;;2.60;1.90;;;;;;;26.12;44.80;96855.25;5030304;28;20517;-75
2022/06/18 08:18:05;;;;;;;2.60;2.40;;;;;;;26.23;44.54;96855.81;5031346;28;20465;-75
2022/06/18 08:20:51;;;;;;;2.70;2.20;;;;;;;26.37;44.51;96859.47;5016409;28;20458;-75
2022/06/18 08:23:18;;;;;;;3.07;2.53;;;;;;;26.38;44.83;96869.91;5013711;28;20497;-75
2022/06/18 08:25:45;;;;;;;3.70;2.37;;;;;;;26.66;44.66;96873.22;5030090;28;20461;-75
2022/06/18 08:28:13;;;;;;;3.47;2.50;;;;;;;26.80;44.92;96849.28;5030043;28;21007;-75
2022/06/18 08:30:41;;;;;;;2.60;2.40;;;;;;;27.24;45.20;96852.59;5040155;28;20981;-74
2022/06/18 08:33:09;;;;;;;2.40;2.20;;;;;;;27.16;44.13;96872.97;5033305;28;20472;-75
2022/06/18 08:35:37;;;;;;;2.57;2.37;;;;;;;26.99;44.24;96865.97;5033115;28;20445;-75
2022/06/18 08:38:07;;;;;;;5.80;3.10;;;;;;;26.67;44.23;96855.78;5050888;28;20468;-75
2022/06/18 08:40:48;;;;;;;3.00;2.70;;;;;;;27.18;44.33;96858.97;5050947;28;20451;-75
2022/06/18 08:43:36;;;;;;;3.67;2.17;;;;;;;27.39;42.83;96866.66;5049651;28;20461;-75
2022/06/18 08:46:31;;;;;;;2.93;2.03;;;;;;;27.91;41.94;96860.34;5050755;28;20469;-75
2022/06/18 08:49:36;;;;;;;2.80;2.13;;;;;;;27.56;41.02;96854.59;5049512;28;20461;-75
2022/06/18 08:52:27;;;;;;;2.63;2.43;;;;;;;27.58;42.37;96849.47;5033095;28;20441;-75
2022/06/18 08:55:17;;;;;;;3.67;2.33;;;;;;;27.70;41.86;96853.50;5051133;28;20433;-75
2022/06/18 08:58:00;;;;;;;2.27;2.13;;;;;;;27.60;42.10;96843.63;5050994;28;20832;-75
2022/06/18 09:00:49;;;;;;;2.03;1.93;;;;;;;28.24;41.20;96848.19;5049270;28;20505;-75
2022/06/18 09:03:31;;;;;;;2.87;2.67;;;;;;;28.02;41.05;96839.06;5049300;28;20532;-75
2022/06/18 09:06:04;;;;;;;2.97;2.17;;;;;;;28.32;41.07;96843.38;5049307;28;20488;-75
2022/06/18 09:08:52;;;;;;;2.73;2.30;;;;;;;28.50;40.86;96842.88;5049619;28;20476;-75
2022/06/18 09:12:08;;;;;;;2.77;2.57;;;;;;;28.66;40.93;96836.56;5049769;28;20477;-74
2022/06/18 09:14:43;;;;;;;2.30;2.20;;;;;;;28.69;41.29;96839.19;5024638;28;20536;-75
2022/06/18 09:17:22;;;;;;;3.70;2.70;;;;;;;28.15;42.02;96839.13;5049367;28;20440;-75
2022/06/18 09:20:30;;;;;;;5.23;4.03;;;;;;;28.40;42.06;96833.03;5048994;28;20588;-75
2022/06/18 09:23:05;;;;;;;3.10;2.80;;;;;;;28.00;41.79;96799.91;5029411;28;20513;-75
2022/06/18 09:25:38;;;;;;;4.63;2.53;;;;;;;28.25;41.70;96798.03;5029815;28;20492;-75
2022/06/18 09:28:09;;;;;;;2.60;2.37;;;;;;;28.63;41.83;96821.88;5029379;28;20482;-75
2022/06/18 09:30:51;;;;;;;4.37;2.70;;;;;;;28.71;39.15;96814.25;5037956;28;20477;-75
2022/06/18 09:33:24;;;;;;;2.33;2.13;;;;;;;28.60;39.58;96813.81;5049065;28;20449;-75
2022/06/18 09:35:55;;;;;;;2.27;2.10;;;;;;;29.18;40.01;96808.97;5049131;28;20468;-75
2022/06/18 09:38:27;;;;;;;2.60;2.30;;;;;;;29.51;38.94;96819.63;5048870;28;20536;-75
2022/06/18 09:40:57;;;;;;;2.67;2.47;;;;;;;29.28;38.83;96809.84;5032357;28;20900;-75
2022/06/18 09:43:59;;;;;;;3.73;2.47;;;;;;;29.12;38.94;96813.44;5049301;28;20856;-75
2022/06/18 09:46:33;;;;;;;2.83;2.63;;;;;;;29.53;39.51;96815.28;5049255;28;20441;-75
2022/06/18 09:48:59;;;;;;;3.00;2.40;;;;;;;29.49;38.45;96805.66;5049078;28;20444;-75
2022/06/18 09:51:56;;;;;;;3.03;2.50;;;;;;;29.32;38.95;96800.34;5049145;28;20445;-75
2022/06/18 09:54:28;;;;;;;2.37;2.17;;;;;;;29.69;37.62;96815.13;5048902;28;20503;-75
2022/06/18 09:57:00;;;;;;;2.03;1.93;;;;;;;29.38;37.54;96787.69;5048729;28;20495;-75
2022/06/18 09:59:32;;;;;;;3.87;2.10;;;;;;;29.26;35.79;96742.16;5048510;28;20895;-75
2022/06/18 10:02:00;;;;;;;2.23;1.83;;;;;;;29.81;35.49;96793.72;5048577;28;20825;-75
2022/06/18 10:07:25;;;;;;;2.40;2.20;;;;;;;30.10;35.05;96802.44;5017125;28;20465;-75
2022/06/18 10:09:57;;;;;;;2.10;2.00;;;;;;;29.61;35.37;96802.16;5030020;28;20450;-75
2022/06/18 10:12:36;;;;;;;2.07;1.97;;;;;;;29.78;35.33;96784.41;5031527;28;20458;-75
2022/06/18 10:15:06;;;;;;;4.23;2.00;;;;;;;29.81;34.60;96793.72;5032546;28;20572;-75
2022/06/18 10:18:11;;;;;;;3.80;1.90;;;;;;;30.36;35.27;96800.34;5032596;28;20842;-75
2022/06/18 10:21:07;;;;;;;2.20;1.90;;;;;;;30.55;34.69;96793.00;5033561;28;20502;-75
2022/06/18 10:23:47;;;;;;;2.20;1.53;;;;;;;30.76;33.43;96791.50;5016876;28;20470;-75
2022/06/18 10:26:31;;;;;;;2.20;2.03;;;;;;;30.55;34.05;96791.03;5016516;28;20448;-75
2022/06/18 10:29:21;;;;;;;2.17;1.97;;;;;;;30.47;33.61;96789.81;5031241;28;21033;-75
2022/06/18 10:32:08;;;;;;;2.67;1.67;;;;;;;30.38;33.63;96767.91;5029029;28;20435;-75
2022/06/18 10:35:07;;;;;;;2.43;2.20;;;;;;;30.07;33.61;96792.44;5050954;28;20444;-75
2022/06/18 10:38:00;;;;;;;2.33;1.80;;;;;;;30.28;33.16;96788.16;5052266;28;21017;-75
2022/06/18 10:40:47;;;;;;;2.13;1.93;;;;;;;30.41;33.11;96783.38;5052801;28;20477;-75
2022/06/18 10:43:39;;;;;;;2.73;2.20;;;;;;;30.87;33.61;96783.66;5052298;28;20995;-75
2022/06/18 10:46:16;;;;;;;6.07;5.53;;;;;;;30.81;32.95;96767.06;5053109;28;20847;-75
2022/06/18 10:48:53;;;;;;;4.40;3.20;;;;;;;30.57;33.19;96753.13;5053195;28;20456;-75
2022/06/18 10:51:25;;;;;;;5.23;3.60;;;;;;;31.15;33.56;96755.19;5037600;28;20926;-75
2022/06/18 10:53:58;;;;;;;2.40;2.20;;;;;;;30.72;33.08;96769.78;5053490;28;20540;-76
2022/06/18 10:56:29;;;;;;;2.70;2.20;;;;;;;30.89;33.94;96775.75;5054193;28;20482;-75
2022/06/18 10:58:59;;;;;;;2.50;2.30;;;;;;;31.42;33.19;96770.16;5052947;28;21022;-75
2022/06/18 11:01:34;;;;;;;3.00;2.50;;;;;;;31.21;33.68;96719.84;5052784;28;20455;-75
2022/06/18 11:04:05;;;;;;;5.97;2.57;;;;;;;32.18;33.31;96758.28;5053367;28;21017;-75
2022/06/18 11:06:32;;;;;;;3.50;3.20;;;;;;;31.60;32.12;96731.13;5053959;28;20991;-75
2022/06/18 11:09:01;;;;;;;3.00;2.70;;;;;;;31.63;33.41;96747.38;5035666;28;20985;-75
2022/06/18 11:11:35;;;;;;;2.40;2.20;;;;;;;32.03;32.57;96752.69;5053886;28;20433;-75
2022/06/18 11:14:32;;;;;;;3.30;2.20;;;;;;;32.38;32.75;96754.34;5043510;28;20457;-75
2022/06/18 11:16:59;;;;;;;2.60;2.40;;;;;;;32.50;32.85;96759.63;5020265;28;20452;-75
2022/06/18 11:19:34;;;;;;;3.60;2.20;;;;;;;32.47;32.13;96759.78;5016176;28;20509;-76
2022/06/18 11:22:19;;;;;;;4.23;2.73;;;;;;;31.97;31.83;96734.63;5034312;28;20734;-75
2022/06/18 11:24:54;;;;;;;3.10;2.23;;;;;;;31.49;31.78;96742.50;5015155;28;20439;-75
2022/06/18 11:27:22;;;;;;;3.33;2.27;;;;;;;31.24;32.04;96753.69;5031512;28;20471;-75
2022/06/18 11:29:51;;;;;;;7.13;3.23;;;;;;;31.45;31.19;96750.84;5028766;28;20457;-75
2022/06/18 11:32:24;;;;;;;4.60;2.50;;;;;;;31.82;31.51;96742.69;5031287;28;20480;-75
2022/06/18 11:35:24;;;;;;;4.17;2.80;;;;;;;31.95;31.80;96740.56;5031510;28;20941;-75
2022/06/18 11:38:00;;;;;;;4.63;2.20;;;;;;;31.46;31.69;96735.22;5031118;28;20443;-75
2022/06/18 11:40:27;;;;;;;3.60;2.60;;;;;;;31.42;31.87;96737.34;5044137;28;20465;-75
2022/06/18 11:43:05;;;;;;;2.80;2.40;;;;;;;31.21;31.89;96710.88;5055746;28;20445;-75
2022/06/18 11:45:55;;;;;;;7.70;2.40;;;;;;;32.23;32.10;96726.81;5055273;28;20446;-75
2022/06/18 11:48:25;;;;;;;5.03;3.20;;;;;;;31.71;32.05;96715.78;5051098;28;20422;-75
2022/06/18 11:51:06;;;;;;;3.33;3.03;;;;;;;31.86;31.44;96717.91;5051013;28;20902;-75
2022/06/18 11:53:53;;;;;;;3.63;2.80;;;;;;;32.86;31.80;96720.41;5052299;28;20494;-75
2022/06/18 11:56:27;;;;;;;4.50;2.63;;;;;;;32.38;30.77;96721.47;5050804;28;20448;-76
2022/06/18 11:59:25;;;;;;;5.67;2.90;;;;;;;32.82;31.66;96716.28;5050996;28;20420;-75
2022/06/18 12:02:04;;;;;;;4.47;2.70;;;;;;;32.66;30.56;96700.22;5049992;28;20445;-75
2022/06/18 12:04:37;;;;;;;4.97;2.60;;;;;;;32.82;30.06;96686.91;5052133;28;20529;-75
2022/06/18 12:07:10;;;;;;;6.67;3.40;;;;;;;32.81;30.16;96706.53;5034040;28;20806;-75
2022/06/18 12:09:37;;;;;;;6.77;3.37;;;;;;;33.52;30.13;96678.38;5050612;28;20460;-75
2022/06/18 12:12:27;;;;;;;5.60;3.30;;;;;;;34.28;29.67;96703.44;5051963;28;20436;-75
2022/06/18 12:15:00;;;;;;;4.00;2.90;;;;;;;34.04;29.79;96700.78;5034200;28;20458;-75
2022/06/18 12:17:53;;;;;;;4.07;2.77;;;;;;;32.92;30.22;96690.38;5050521;28;20957;-75